Time;durP1;ratioP1;P1;durP2;ratioP2;P2;SDS_P1;SDS_P2;PMS_P1;PMS_P2;Temp;Humidity;BMP_temperature;BMP_pressure;BME280_temperature;BME280_humidity;BME280_pressure;Samples;Min_cycle;Max_cycle;Signal;HPM_P1;HPM_P2
2023/07/25 00:00:27;;;;;;;8.82;6.65;;;;;;;;;;5072260;28;20021;-67
2023/07/25 00:02:52;;;;;;;11.20;6.30;;;;;;;;;;5070787;28;20050;-67
2023/07/25 00:05:18;;;;;;;9.10;5.67;;;;;;;;;;5071517;28;20379;-66
2023/07/25 00:07:43;;;;;;;10.40;5.27;;;;;;;;;;5070481;28;20465;-66
2023/07/25 00:10:08;;;;;;;8.68;5.40;;;;;;;;;;5071728;28;20025;-66
2023/07/25 00:12:34;;;;;;;8.10;5.72;;;;;;;;;;5070052;28;20052;-66
2023/07/25 00:14:59;;;;;;;8.90;5.88;;;;;;;;;;5072088;28;20055;-66
2023/07/25 00:17:24;;;;;;;7.78;4.65;;;;;;;;;;5070199;28;20033;-65
2023/07/25 00:19:49;;;;;;;14.88;5.78;;;;;;;;;;5071413;28;20083;-66
2023/07/25 00:22:14;;;;;;;9.93;5.35;;;;;;;;;;5069682;28;20035;-66
2023/07/25 00:24:39;;;;;;;6.27;5.73;;;;;;;;;;5071836;28;20039;-66
2023/07/25 00:27:05;;;;;;;7.85;5.65;;;;;;;;;;5069453;28;20063;-66
2023/07/25 00:29:30;;;;;;;13.20;6.97;;;;;;;;;;5071726;28;20020;-65
2023/07/25 00:31:55;;;;;;;9.03;6.50;;;;;;;;;;5070043;28;20098;-67
2023/07/25 00:34:20;;;;;;;14.45;6.28;;;;;;;;;;5070708;28;20453;-66
2023/07/25 00:36:45;;;;;;;8.33;6.77;;;;;;;;;;5069954;28;20509;-66
2023/07/25 00:39:11;;;;;;;6.97;6.40;;;;;;;;;;5070572;28;20016;-66
2023/07/25 00:41:36;;;;;;;7.90;6.13;;;;;;;;;;5069589;28;20050;-65
2023/07/25 00:44:01;;;;;;;9.23;6.43;;;;;;;;;;5071259;28;20070;-66
2023/07/25 00:46:26;;;;;;;8.35;5.90;;;;;;;;;;5069735;28;20040;-66
2023/07/25 00:48:51;;;;;;;10.53;6.10;;;;;;;;;;5071012;28;20027;-65
2023/07/25 00:51:17;;;;;;;18.80;7.15;;;;;;;;;;5069530;28;20451;-65
2023/07/25 00:53:42;;;;;;;13.50;6.15;;;;;;;;;;5071272;28;20490;-66
2023/07/25 00:56:08;;;;;;;14.57;7.70;;;;;;;;;;5068911;28;20394;-65
2023/07/25 00:58:33;;;;;;;13.32;7.78;;;;;;;;;;5071323;28;20024;-66
2023/07/25 01:01:02;;;;;;;8.53;7.10;;;;;;;;;;5069072;28;20016;-64
2023/07/25 01:03:27;;;;;;;14.63;8.07;;;;;;;;;;5069585;28;20490;-65
2023/07/25 01:05:53;;;;;;;11.33;6.97;;;;;;;;;;5070868;28;20025;-65
2023/07/25 01:08:18;;;;;;;9.68;8.10;;;;;;;;;;5068877;28;20447;-66
2023/07/25 01:10:43;;;;;;;10.10;7.50;;;;;;;;;;5070014;28;20445;-66
2023/07/25 01:13:08;;;;;;;8.13;6.72;;;;;;;;;;5069331;28;20047;-66
2023/07/25 01:15:34;;;;;;;8.13;7.43;;;;;;;;;;5070574;28;20025;-66
2023/07/25 01:17:59;;;;;;;10.68;7.80;;;;;;;;;;5068964;28;20051;-66
2023/07/25 01:20:25;;;;;;;13.60;9.05;;;;;;;;;;5070625;28;20028;-66
2023/07/25 01:22:50;;;;;;;9.50;7.57;;;;;;;;;;5069258;28;20040;-65
2023/07/25 01:25:15;;;;;;;15.02;8.30;;;;;;;;;;5070328;28;20472;-66
2023/07/25 01:27:41;;;;;;;9.05;7.28;;;;;;;;;;5069342;28;20041;-66
2023/07/25 01:30:06;;;;;;;10.33;6.80;;;;;;;;;;5070731;28;20116;-66
2023/07/25 01:32:32;;;;;;;14.15;7.47;;;;;;;;;;5069124;28;20466;-67
2023/07/25 01:34:57;;;;;;;9.63;7.72;;;;;;;;;;5070361;28;20425;-66
2023/07/25 01:37:22;;;;;;;10.77;7.43;;;;;;;;;;5068985;28;20063;-67
2023/07/25 01:39:47;;;;;;;10.02;6.80;;;;;;;;;;5070632;28;20454;-66
2023/07/25 01:42:12;;;;;;;9.85;8.85;;;;;;;;;;5068747;28;20032;-66
2023/07/25 01:44:37;;;;;;;7.63;6.77;;;;;;;;;;5070551;28;20464;-67
2023/07/25 01:47:03;;;;;;;9.32;7.18;;;;;;;;;;5068874;28;20040;-66
2023/07/25 01:49:28;;;;;;;12.05;6.85;;;;;;;;;;5071024;28;20023;-67
2023/07/25 01:51:53;;;;;;;12.88;7.50;;;;;;;;;;5073243;28;20577;-68
2023/07/25 01:54:18;;;;;;;15.82;6.80;;;;;;;;;;5074434;28;20027;-68
2023/07/25 01:56:43;;;;;;;8.13;6.32;;;;;;;;;;5072659;28;20036;-67
2023/07/25 01:59:08;;;;;;;8.80;6.70;;;;;;;;;;5074387;28;20028;-67
2023/07/25 02:01:34;;;;;;;9.73;7.60;;;;;;;;;;5073135;28;20455;-69
2023/07/25 02:03:59;;;;;;;12.93;6.78;;;;;;;;;;5074030;28;20396;-69
2023/07/25 02:06:24;;;;;;;6.10;5.23;;;;;;;;;;5072782;28;20071;-69
2023/07/25 02:08:49;;;;;;;7.10;6.40;;;;;;;;;;5074125;28;20024;-69
2023/07/25 02:11:14;;;;;;;7.38;6.72;;;;;;;;;;5072137;28;20060;-69
2023/07/25 02:13:39;;;;;;;7.13;5.83;;;;;;;;;;5074352;28;20024;-69
2023/07/25 02:16:05;;;;;;;11.40;4.53;;;;;;;;;;5072265;28;20484;-69
2023/07/25 02:18:30;;;;;;;5.53;4.17;;;;;;;;;;5073717;28;20028;-69
2023/07/25 02:20:55;;;;;;;39.33;5.33;;;;;;;;;;5072622;28;20395;-68
2023/07/25 02:23:20;;;;;;;12.40;4.47;;;;;;;;;;5073708;28;20034;-69
2023/07/25 02:25:48;;;;;;;12.47;4.60;;;;;;;;;;5073887;28;20017;-69
2023/07/25 02:28:13;;;;;;;4.85;4.45;;;;;;;;;;5072359;28;20029;-68
2023/07/25 02:30:39;;;;;;;10.60;5.60;;;;;;;;;;5074063;28;20029;-66
2023/07/25 02:33:04;;;;;;;5.93;3.70;;;;;;;;;;5071827;28;20391;-67
2023/07/25 02:35:29;;;;;;;4.88;4.15;;;;;;;;;;5073907;28;20117;-68
2023/07/25 02:37:54;;;;;;;6.38;5.78;;;;;;;;;;5072274;28;20024;-67
2023/07/25 02:40:20;;;;;;;13.30;8.13;;;;;;;;;;5073237;28;20020;-68
2023/07/25 02:42:45;;;;;;;6.27;5.67;;;;;;;;;;5072242;28;20407;-68
2023/07/25 02:45:10;;;;;;;8.38;5.78;;;;;;;;;;5073644;28;20426;-67
2023/07/25 02:47:35;;;;;;;13.93;6.70;;;;;;;;;;5071491;28;20035;-67
2023/07/25 02:50:00;;;;;;;5.32;4.82;;;;;;;;;;5073525;28;20437;-68
2023/07/25 02:52:25;;;;;;;75.53;7.70;;;;;;;;;;5071810;28;20135;-69
2023/07/25 02:54:51;;;;;;;16.33;4.20;;;;;;;;;;5072977;28;20013;-69
2023/07/25 02:57:16;;;;;;;23.63;6.88;;;;;;;;;;5071849;28;20043;-69
2023/07/25 02:59:41;;;;;;;8.40;4.77;;;;;;;;;;5073517;28;20024;-69
2023/07/25 03:02:06;;;;;;;7.63;4.07;;;;;;;;;;5070893;28;20047;-69
2023/07/25 03:04:32;;;;;;;13.75;5.35;;;;;;;;;;5073373;28;20013;-69
2023/07/25 03:06:57;;;;;;;6.73;5.93;;;;;;;;;;5071801;28;20565;-69
2023/07/25 03:09:22;;;;;;;6.60;6.00;;;;;;;;;;5072720;28;20016;-69
2023/07/25 03:11:47;;;;;;;7.33;6.63;;;;;;;;;;5071626;28;20466;-69
2023/07/25 03:14:12;;;;;;;7.75;5.72;;;;;;;;;;5073118;28;20073;-69
2023/07/25 03:16:37;;;;;;;6.70;6.10;;;;;;;;;;5071383;28;20507;-69
2023/07/25 03:19:03;;;;;;;7.40;6.70;;;;;;;;;;5072727;28;20427;-69
2023/07/25 03:21:28;;;;;;;9.85;6.93;;;;;;;;;;5071651;28;20399;-69
2023/07/25 03:23:53;;;;;;;5.72;5.25;;;;;;;;;;5072344;28;20035;-69
2023/07/25 03:26:18;;;;;;;18.03;3.13;;;;;;;;;;5071196;28;20029;-70
2023/07/25 03:28:43;;;;;;;24.80;3.27;;;;;;;;;;5072942;28;20042;-68
2023/07/25 03:31:08;;;;;;;35.97;6.03;;;;;;;;;;5070767;28;20032;-67
2023/07/25 03:33:34;;;;;;;13.65;4.10;;;;;;;;;;5072929;28;20095;-67
2023/07/25 03:35:59;;;;;;;8.20;5.20;;;;;;;;;;5071210;28;20048;-66
2023/07/25 03:38:24;;;;;;;5.53;4.17;;;;;;;;;;5072183;28;20438;-67
2023/07/25 03:40:49;;;;;;;6.80;6.20;;;;;;;;;;5072567;28;20983;-67
2023/07/25 03:43:14;;;;;;;8.05;5.07;;;;;;;;;;5070907;28;20439;-67
2023/07/25 03:45:39;;;;;;;5.65;5.15;;;;;;;;;;5072662;28;20021;-68
2023/07/25 03:48:05;;;;;;;6.33;5.50;;;;;;;;;;5070285;28;20036;-66
2023/07/25 03:50:30;;;;;;;9.07;6.63;;;;;;;;;;5072331;28;20447;-66
2023/07/25 03:52:58;;;;;;;10.23;6.35;;;;;;;;;;5070838;28;20040;-65
2023/07/25 03:55:23;;;;;;;10.10;6.93;;;;;;;;;;5072034;28;20021;-66
2023/07/25 03:57:48;;;;;;;6.57;5.97;;;;;;;;;;5070902;28;20086;-66
2023/07/25 04:00:13;;;;;;;9.27;8.30;;;;;;;;;;5072085;28;20410;-66
2023/07/25 04:02:38;;;;;;;8.05;6.90;;;;;;;;;;5069902;28;20067;-66
2023/07/25 04:05:04;;;;;;;9.75;8.05;;;;;;;;;;5072108;28;20403;-66
2023/07/25 04:07:29;;;;;;;9.07;7.72;;;;;;;;;;5070447;28;20032;-66
2023/07/25 04:09:54;;;;;;;10.97;7.37;;;;;;;;;;5071500;28;20059;-66
2023/07/25 04:12:19;;;;;;;9.93;6.87;;;;;;;;;;5069756;28;20036;-71
2023/07/25 04:14:44;;;;;;;13.18;6.82;;;;;;;;;;5069614;28;20450;-69
2023/07/25 04:17:09;;;;;;;11.50;7.07;;;;;;;;;;5069784;28;20495;-70
2023/07/25 04:19:35;;;;;;;7.57;6.80;;;;;;;;;;5071072;28;20028;-68
2023/07/25 04:22:00;;;;;;;13.83;8.33;;;;;;;;;;5069972;28;20045;-68
2023/07/25 04:24:25;;;;;;;12.40;9.30;;;;;;;;;;5060753;28;20451;-68
2023/07/25 04:26:50;;;;;;;13.32;7.22;;;;;;;;;;5070399;28;20036;-68
2023/07/25 04:29:15;;;;;;;12.43;7.32;;;;;;;;;;5063445;28;20494;-68
2023/07/25 04:31:40;;;;;;;11.73;8.63;;;;;;;;;;5049959;28;20048;-68
2023/07/25 04:34:05;;;;;;;12.53;8.43;;;;;;;;;;5051631;28;20025;-69
2023/07/25 04:36:31;;;;;;;13.30;9.13;;;;;;;;;;5049991;28;20460;-68
2023/07/25 04:38:56;;;;;;;14.40;8.93;;;;;;;;;;5051409;28;20025;-69
2023/07/25 04:41:21;;;;;;;10.02;9.02;;;;;;;;;;5065993;28;20074;-68
2023/07/25 04:43:47;;;;;;;14.95;9.13;;;;;;;;;;5071478;28;20078;-68
2023/07/25 04:46:12;;;;;;;11.30;9.95;;;;;;;;;;5068519;28;20032;-68
2023/07/25 04:48:37;;;;;;;9.00;7.50;;;;;;;;;;5068662;28;20025;-68
2023/07/25 04:51:02;;;;;;;9.70;8.27;;;;;;;;;;5068184;28;20510;-68
2023/07/25 04:53:27;;;;;;;14.48;7.78;;;;;;;;;;5066436;28;20025;-68
2023/07/25 04:55:52;;;;;;;17.88;10.63;;;;;;;;;;5048574;28;20079;-67
2023/07/25 04:58:18;;;;;;;13.20;8.70;;;;;;;;;;5055958;28;20456;-67
2023/07/25 05:00:43;;;;;;;15.23;8.93;;;;;;;;;;5061440;28;20032;-68
2023/07/25 05:03:08;;;;;;;16.90;8.85;;;;;;;;;;5055729;28;20029;-68
2023/07/25 05:05:33;;;;;;;16.52;9.05;;;;;;;;;;5059395;28;20056;-67
2023/07/25 05:07:59;;;;;;;41.87;10.70;;;;;;;;;;5055215;28;20095;-67
2023/07/25 05:10:24;;;;;;;13.37;9.47;;;;;;;;;;5057680;28;20025;-67
2023/07/25 05:12:50;;;;;;;11.75;9.15;;;;;;;;;;5057975;28;20451;-67
2023/07/25 05:15:15;;;;;;;15.90;9.45;;;;;;;;;;5059923;28;20477;-68
2023/07/25 05:17:40;;;;;;;12.17;7.60;;;;;;;;;;5058019;28;20475;-68
2023/07/25 05:20:06;;;;;;;10.05;8.07;;;;;;;;;;5057479;28;21026;-66
2023/07/25 05:22:31;;;;;;;9.15;8.30;;;;;;;;;;5055187;28;20094;-67
2023/07/25 05:24:56;;;;;;;13.23;8.93;;;;;;;;;;5057587;28;20489;-67
2023/07/25 05:27:22;;;;;;;13.35;8.82;;;;;;;;;;5057706;28;20609;-67
2023/07/25 05:29:47;;;;;;;11.00;8.60;;;;;;;;;;5059510;28;20026;-67
2023/07/25 05:32:12;;;;;;;9.60;6.80;;;;;;;;;;5056734;28;20048;-68
2023/07/25 05:34:38;;;;;;;10.65;7.75;;;;;;;;;;5060862;28;20016;-67
2023/07/25 05:37:03;;;;;;;12.65;6.45;;;;;;;;;;5067267;28;20052;-68
2023/07/25 05:39:28;;;;;;;14.52;8.60;;;;;;;;;;5069184;28;20100;-68
2023/07/25 05:41:54;;;;;;;10.30;8.07;;;;;;;;;;5067567;28;20457;-68
2023/07/25 05:44:19;;;;;;;9.70;7.97;;;;;;;;;;5068264;28;20032;-68
2023/07/25 05:46:44;;;;;;;13.63;7.57;;;;;;;;;;5067445;28;20473;-68
2023/07/25 05:49:09;;;;;;;11.10;9.43;;;;;;;;;;5068148;28;20036;-68
2023/07/25 05:51:34;;;;;;;10.07;7.50;;;;;;;;;;5068609;28;20042;-68
2023/07/25 05:53:59;;;;;;;24.43;9.20;;;;;;;;;;5070319;28;20422;-69
2023/07/25 05:56:24;;;;;;;20.10;7.10;;;;;;;;;;5068878;28;20469;-68
2023/07/25 05:58:50;;;;;;;13.30;7.93;;;;;;;;;;5070515;28;20032;-68
2023/07/25 06:01:15;;;;;;;21.40;10.10;;;;;;;;;;5068421;28;20450;-68
2023/07/25 06:03:40;;;;;;;9.67;5.73;;;;;;;;;;5070740;28;20031;-68
2023/07/25 06:06:05;;;;;;;19.77;9.23;;;;;;;;;;5068768;28;20521;-67
2023/07/25 06:08:30;;;;;;;14.15;7.97;;;;;;;;;;5069895;28;20055;-68
2023/07/25 06:10:55;;;;;;;13.88;6.45;;;;;;;;;;5068965;28;20064;-67
2023/07/25 06:13:21;;;;;;;7.10;4.97;;;;;;;;;;5067624;28;20071;-68
2023/07/25 06:15:46;;;;;;;10.53;6.37;;;;;;;;;;5068358;28;20468;-68
2023/07/25 06:18:12;;;;;;;13.50;6.65;;;;;;;;;;5067811;28;21069;-68
2023/07/25 06:20:37;;;;;;;11.20;6.55;;;;;;;;;;5068444;28;20059;-68
2023/07/25 06:23:02;;;;;;;14.55;5.32;;;;;;;;;;5066820;28;20116;-68
2023/07/25 06:25:27;;;;;;;13.05;7.03;;;;;;;;;;5070395;28;20492;-68
2023/07/25 06:27:53;;;;;;;7.35;5.18;;;;;;;;;;5065558;28;20032;-68
2023/07/25 06:30:18;;;;;;;6.60;4.55;;;;;;;;;;5049412;28;20021;-68
2023/07/25 06:32:43;;;;;;;7.67;4.33;;;;;;;;;;5064681;28;20491;-68
2023/07/25 06:35:08;;;;;;;7.57;5.37;;;;;;;;;;5069768;28;20447;-67
2023/07/25 06:37:35;;;;;;;9.68;5.68;;;;;;;;;;5070640;28;20461;-67
2023/07/25 06:40:00;;;;;;;5.38;4.53;;;;;;;;;;5073797;28;20017;-68
2023/07/25 06:42:28;;;;;;;8.32;4.88;;;;;;;;;;5072199;28;20173;-68
2023/07/25 06:44:53;;;;;;;11.95;4.45;;;;;;;;;;5073273;28;20017;-68
2023/07/25 06:47:18;;;;;;;11.82;4.57;;;;;;;;;;5071579;28;20047;-68
2023/07/25 06:49:43;;;;;;;9.05;4.18;;;;;;;;;;5073488;28;20023;-67
2023/07/25 06:52:08;;;;;;;5.50;3.38;;;;;;;;;;5071398;28;20036;-68
2023/07/25 06:54:34;;;;;;;9.97;4.33;;;;;;;;;;5073512;28;20025;-68
2023/07/25 06:56:59;;;;;;;12.80;4.32;;;;;;;;;;5071845;28;20036;-68
2023/07/25 06:59:24;;;;;;;6.38;2.55;;;;;;;;;;5072685;28;20024;-68
2023/07/25 07:01:49;;;;;;;11.32;4.40;;;;;;;;;;5072054;28;20060;-68
2023/07/25 07:04:14;;;;;;;6.57;3.50;;;;;;;;;;5073052;28;20017;-68
2023/07/25 07:06:40;;;;;;;8.20;3.60;;;;;;;;;;5071577;28;20571;-67
2023/07/25 07:09:05;;;;;;;6.07;2.80;;;;;;;;;;5059993;28;21220;-68
2023/07/25 07:11:30;;;;;;;15.97;4.57;;;;;;;;;;5051449;28;21025;-67
2023/07/25 07:13:55;;;;;;;8.07;3.97;;;;;;;;;;5052750;28;20027;-67
2023/07/25 07:16:20;;;;;;;6.00;4.37;;;;;;;;;;5051324;28;20044;-67
2023/07/25 07:18:45;;;;;;;14.30;3.77;;;;;;;;;;5053140;28;20052;-67
2023/07/25 07:21:11;;;;;;;13.82;3.60;;;;;;;;;;5049666;28;20041;-69
2023/07/25 07:23:36;;;;;;;8.80;3.93;;;;;;;;;;5052957;28;20029;-68
2023/07/25 07:26:01;;;;;;;11.02;2.30;;;;;;;;;;5051300;28;20025;-67
2023/07/25 07:28:26;;;;;;;7.40;3.35;;;;;;;;;;5052143;28;20083;-68
2023/07/25 07:30:51;;;;;;;10.43;2.65;;;;;;;;;;5052798;28;20028;-66
2023/07/25 07:33:19;;;;;;;10.85;2.22;;;;;;;;;;5051146;28;20040;-67
2023/07/25 07:35:45;;;;;;;11.55;3.17;;;;;;;;;;5052261;28;20049;-67
2023/07/25 07:38:10;;;;;;;9.93;2.47;;;;;;;;;;5051148;28;20037;-67
2023/07/25 07:40:36;;;;;;;14.90;3.20;;;;;;;;;;5052655;28;20439;-66
2023/07/25 07:43:01;;;;;;;16.05;4.00;;;;;;;;;;5050536;28;20033;-66
2023/07/25 07:45:27;;;;;;;8.07;2.45;;;;;;;;;;5060120;28;20035;-66
2023/07/25 07:47:52;;;;;;;6.03;2.95;;;;;;;;;;5069601;28;20043;-66
2023/07/25 07:50:17;;;;;;;8.90;3.07;;;;;;;;;;5068215;28;20095;-66
2023/07/25 07:52:43;;;;;;;4.53;2.25;;;;;;;;;;5050867;28;20451;-67
2023/07/25 07:55:09;;;;;;;6.47;3.60;;;;;;;;;;5052218;28;20021;-67
2023/07/25 07:57:37;;;;;;;5.93;2.20;;;;;;;;;;5050521;28;20032;-67
2023/07/25 08:00:04;;;;;;;13.55;5.10;;;;;;;;;;5052021;28;20082;-67
2023/07/25 08:02:29;;;;;;;7.40;3.00;;;;;;;;;;5054331;28;20060;-67
2023/07/25 08:04:54;;;;;;;9.30;3.10;;;;;;;;;;5071795;28;20040;-67
2023/07/25 08:07:19;;;;;;;6.53;2.30;;;;;;;;;;5070205;28;20518;-67
2023/07/25 08:09:44;;;;;;;7.22;2.10;;;;;;;;;;5072038;28;20707;-67
2023/07/25 08:12:09;;;;;;;6.53;1.98;;;;;;;;;;5070117;28;20528;-66
2023/07/25 08:14:35;;;;;;;5.27;1.57;;;;;;;;;;5071745;28;20048;-67
2023/07/25 08:17:00;;;;;;;5.37;1.97;;;;;;;;;;5069261;28;20411;-66
2023/07/25 08:19:25;;;;;;;10.98;2.65;;;;;;;;;;5071816;28;20029;-67
2023/07/25 08:21:52;;;;;;;5.85;2.60;;;;;;;;;;5070005;28;20123;-67
2023/07/25 08:24:17;;;;;;;5.47;2.15;;;;;;;;;;5071575;28;20104;-67
2023/07/25 08:26:42;;;;;;;4.13;2.72;;;;;;;;;;5070408;28;20151;-66
2023/07/25 08:29:07;;;;;;;9.00;2.67;;;;;;;;;;5068356;28;20032;-67
2023/07/25 08:31:32;;;;;;;9.18;4.00;;;;;;;;;;5069976;28;20036;-66
2023/07/25 08:33:57;;;;;;;9.43;3.83;;;;;;;;;;5071627;28;20055;-67
2023/07/25 08:36:23;;;;;;;5.07;2.47;;;;;;;;;;5069204;28;20045;-67
2023/07/25 08:38:48;;;;;;;8.50;2.78;;;;;;;;;;5071612;28;20395;-67
2023/07/25 08:41:16;;;;;;;15.70;3.60;;;;;;;;;;5069937;28;20035;-66
2023/07/25 08:43:42;;;;;;;10.57;2.55;;;;;;;;;;5071066;28;20419;-67
2023/07/25 08:46:08;;;;;;;5.75;2.25;;;;;;;;;;5069726;28;20021;-66
2023/07/25 08:48:36;;;;;;;14.20;3.83;;;;;;;;;;5071384;28;20021;-67
2023/07/25 08:51:01;;;;;;;9.95;3.30;;;;;;;;;;5069492;28;20128;-66
2023/07/25 08:53:27;;;;;;;5.97;2.45;;;;;;;;;;5071354;28;20440;-67
2023/07/25 08:55:52;;;;;;;7.10;2.22;;;;;;;;;;5070824;28;20020;-64
2023/07/25 08:58:18;;;;;;;7.05;2.85;;;;;;;;;;5070722;28;20028;-67
2023/07/25 09:00:43;;;;;;;5.37;2.50;;;;;;;;;;5070608;28;20056;-67
2023/07/25 09:03:08;;;;;;;7.57;3.25;;;;;;;;;;5069566;28;20372;-67
2023/07/25 09:05:34;;;;;;;15.07;5.35;;;;;;;;;;5070829;28;20017;-67
2023/07/25 09:07:59;;;;;;;7.03;3.83;;;;;;;;;;5069131;28;20119;-67
2023/07/25 09:10:26;;;;;;;9.90;3.15;;;;;;;;;;5070551;28;20032;-67
2023/07/25 09:12:51;;;;;;;7.35;3.13;;;;;;;;;;5068664;28;20052;-67
2023/07/25 09:15:16;;;;;;;8.00;2.80;;;;;;;;;;5064018;28;20008;-67
2023/07/25 09:17:41;;;;;;;14.95;6.13;;;;;;;;;;5069002;28;20089;-67
2023/07/25 09:20:07;;;;;;;8.33;2.97;;;;;;;;;;5069797;28;20021;-67
2023/07/25 09:22:32;;;;;;;6.25;2.15;;;;;;;;;;5067599;28;20455;-67
2023/07/25 09:24:58;;;;;;;9.40;4.03;;;;;;;;;;5070214;28;20074;-67
2023/07/25 09:27:24;;;;;;;3.75;2.60;;;;;;;;;;5062692;28;20048;-67
2023/07/25 09:29:50;;;;;;;8.68;3.38;;;;;;;;;;5068934;28;20013;-67
2023/07/25 09:32:19;;;;;;;7.95;2.83;;;;;;;;;;5068177;28;20056;-68
2023/07/25 09:34:45;;;;;;;7.13;2.55;;;;;;;;;;5062288;28;20100;-68
2023/07/25 09:37:10;;;;;;;9.85;3.88;;;;;;;;;;5066939;28;20055;-69
2023/07/25 09:39:35;;;;;;;11.70;2.63;;;;;;;;;;5068926;28;20032;-67
2023/07/25 09:42:01;;;;;;;6.90;3.65;;;;;;;;;;5067172;28;20409;-67
2023/07/25 09:44:31;;;;;;;14.60;4.43;;;;;;;;;;5066585;28;20142;-67
2023/07/25 09:46:56;;;;;;;10.57;4.22;;;;;;;;;;5067246;28;20040;-68
2023/07/25 09:49:22;;;;;;;8.30;3.60;;;;;;;;;;5069312;28;20047;-69
2023/07/25 09:51:59;;;;;;;7.45;3.75;;;;;;;;;;5068471;28;20041;-67
2023/07/25 09:54:25;;;;;;;11.27;2.53;;;;;;;;;;5070245;28;20012;-68
2023/07/25 09:56:50;;;;;;;10.30;4.30;;;;;;;;;;5068440;28;20047;-68
2023/07/25 09:59:15;;;;;;;4.10;2.75;;;;;;;;;;5069917;28;20427;-67
2023/07/25 10:01:40;;;;;;;14.50;5.50;;;;;;;;;;5067213;28;20032;-67
2023/07/25 10:04:06;;;;;;;14.10;4.75;;;;;;;;;;5069499;28;20024;-67
2023/07/25 10:06:33;;;;;;;4.50;2.78;;;;;;;;;;5050840;28;20032;-67
2023/07/25 10:08:59;;;;;;;11.65;4.45;;;;;;;;;;5070067;28;20111;-68
2023/07/25 10:11:24;;;;;;;5.47;2.55;;;;;;;;;;5068491;28;20702;-67
2023/07/25 10:13:50;;;;;;;13.40;3.08;;;;;;;;;;5073982;28;20024;-67
2023/07/25 10:16:17;;;;;;;11.18;3.30;;;;;;;;;;5072376;28;20040;-67
2023/07/25 10:18:42;;;;;;;11.55;4.38;;;;;;;;;;5073858;28;20095;-67
2023/07/25 10:21:08;;;;;;;7.30;3.55;;;;;;;;;;5068854;28;20163;-68
2023/07/25 10:23:34;;;;;;;25.73;5.22;;;;;;;;;;5053826;28;20032;-68
2023/07/25 10:26:28;;;;;;;11.82;3.38;;;;;;;;;;5050473;28;20365;-68
2023/07/25 10:28:54;;;;;;;4.10;1.73;;;;;;;;;;5064416;28;20062;-68
2023/07/25 10:31:23;;;;;;;4.47;2.40;;;;;;;;;;5059561;28;20120;-68
2023/07/25 10:33:55;;;;;;;7.10;2.45;;;;;;;;;;5053482;28;20431;-68
2023/07/25 10:36:21;;;;;;;3.83;1.30;;;;;;;;;;5051480;28;20052;-68
2023/07/25 10:38:48;;;;;;;1.77;1.10;;;;;;;;;;5053331;28;20077;-68
2023/07/25 10:41:13;;;;;;;3.90;1.42;;;;;;;;;;5051246;28;20072;-68
2023/07/25 10:43:45;;;;;;;2.90;1.40;;;;;;;;;;5066951;28;20106;-68
2023/07/25 10:46:17;;;;;;;5.90;1.80;;;;;;;;;;5071570;28;20046;-68
2023/07/25 10:48:44;;;;;;;8.38;1.50;;;;;;;;;;5070845;28;20035;-68
2023/07/25 10:51:09;;;;;;;2.08;1.30;;;;;;;;;;5069434;28;20025;-67
2023/07/25 10:53:34;;;;;;;4.67;3.27;;;;;;;;;;5073506;28;20023;-68
2023/07/25 10:56:03;;;;;;;2.30;1.15;;;;;;;;;;5057113;28;20005;-67
2023/07/25 10:58:28;;;;;;;5.10;1.52;;;;;;;;;;5053165;28;20026;-68
2023/07/25 11:00:53;;;;;;;3.35;1.48;;;;;;;;;;5053123;28;20400;-67
2023/07/25 11:03:25;;;;;;;1.83;1.73;;;;;;;;;;5050855;28;20040;-68
2023/07/25 11:05:50;;;;;;;2.05;1.52;;;;;;;;;;5051820;28;20025;-68
2023/07/25 11:08:16;;;;;;;2.42;2.13;;;;;;;;;;5065784;28;20044;-68
2023/07/25 11:10:42;;;;;;;3.28;1.73;;;;;;;;;;5072685;28;20031;-67
2023/07/25 11:13:08;;;;;;;5.40;2.17;;;;;;;;;;5070895;28;20036;-68
2023/07/25 11:15:33;;;;;;;9.15;1.70;;;;;;;;;;5074773;28;20447;-68
2023/07/25 11:17:58;;;;;;;6.50;1.60;;;;;;;;;;5070873;28;20029;-68
2023/07/25 11:20:23;;;;;;;3.92;1.50;;;;;;;;;;5072002;28;20483;-68
2023/07/25 11:22:49;;;;;;;2.23;1.83;;;;;;;;;;5070693;28;20033;-67
2023/07/25 11:25:15;;;;;;;1.98;1.40;;;;;;;;;;5072084;28;20427;-67
2023/07/25 11:27:44;;;;;;;2.58;1.17;;;;;;;;;;5071015;28;20032;-68
2023/07/25 11:30:13;;;;;;;1.40;1.10;;;;;;;;;;5072302;28;20009;-68
2023/07/25 11:32:39;;;;;;;5.15;2.20;;;;;;;;;;5070579;28;20127;-67
2023/07/25 11:35:05;;;;;;;3.60;1.25;;;;;;;;;;5071871;28;20101;-67
2023/07/25 11:37:30;;;;;;;2.05;1.30;;;;;;;;;;5071205;28;20051;-67
2023/07/25 11:39:55;;;;;;;25.77;2.70;;;;;;;;;;5072041;28;20024;-68
2023/07/25 11:42:21;;;;;;;3.05;1.40;;;;;;;;;;5070545;28;20040;-68
2023/07/25 11:44:46;;;;;;;2.38;1.55;;;;;;;;;;5072291;28;20138;-68
2023/07/25 11:47:11;;;;;;;2.72;1.70;;;;;;;;;;5070389;28;20107;-68
2023/07/25 11:49:36;;;;;;;1.23;1.15;;;;;;;;;;5072043;28;20036;-69
2023/07/25 11:52:03;;;;;;;7.93;1.83;;;;;;;;;;5057044;28;20048;-68
2023/07/25 11:54:28;;;;;;;7.45;1.20;;;;;;;;;;5071538;28;20025;-68
2023/07/25 11:56:53;;;;;;;10.05;3.03;;;;;;;;;;5061920;28;20037;-68
2023/07/25 11:59:18;;;;;;;4.07;1.07;;;;;;;;;;5051724;28;20025;-68
2023/07/25 12:01:43;;;;;;;3.67;0.80;;;;;;;;;;5050300;28;20466;-68
2023/07/25 12:04:13;;;;;;;2.83;1.03;;;;;;;;;;5051651;28;20021;-68
2023/07/25 12:06:39;;;;;;;2.58;0.60;;;;;;;;;;5050802;28;20033;-68
2023/07/25 12:09:04;;;;;;;3.38;0.73;;;;;;;;;;5051278;28;20028;-68
2023/07/25 12:11:29;;;;;;;1.83;1.33;;;;;;;;;;5050185;28;20041;-68
2023/07/25 12:13:56;;;;;;;2.45;1.58;;;;;;;;;;5052011;28;20048;-68
2023/07/25 12:16:35;;;;;;;6.18;1.10;;;;;;;;;;5050320;28;20075;-68
2023/07/25 12:19:01;;;;;;;2.25;0.90;;;;;;;;;;5051542;28;20500;-67
2023/07/25 12:21:30;;;;;;;1.35;0.88;;;;;;;;;;5050298;28;20044;-68
2023/07/25 12:24:00;;;;;;;0.70;0.70;;;;;;;;;;5051481;28;20132;-68
2023/07/25 12:26:25;;;;;;;1.65;0.85;;;;;;;;;;5050013;28;20060;-68
2023/07/25 12:28:51;;;;;;;4.10;2.67;;;;;;;;;;5050036;28;20052;-68
2023/07/25 12:31:16;;;;;;;6.32;1.60;;;;;;;;;;5049558;28;20187;-68
2023/07/25 12:33:45;;;;;;;1.00;0.88;;;;;;;;;;5050811;28;20123;-68
2023/07/25 12:36:11;;;;;;;0.95;0.82;;;;;;;;;;5049226;28;20091;-68
2023/07/25 12:38:36;;;;;;;1.27;1.17;;;;;;;;;;5049887;28;20056;-68
2023/07/25 12:41:01;;;;;;;1.70;0.80;;;;;;;;;;5049516;28;20408;-69
2023/07/25 12:43:27;;;;;;;2.72;1.00;;;;;;;;;;5051003;28;20025;-68
2023/07/25 12:45:52;;;;;;;3.93;0.87;;;;;;;;;;5049868;28;20044;-68
2023/07/25 12:48:17;;;;;;;4.27;1.17;;;;;;;;;;5057900;28;20478;-68
2023/07/25 12:50:42;;;;;;;2.03;1.15;;;;;;;;;;5069978;28;20020;-68
2023/07/25 12:53:08;;;;;;;4.55;1.05;;;;;;;;;;5069303;28;20487;-68
2023/07/25 12:55:33;;;;;;;4.20;0.93;;;;;;;;;;5070584;28;20344;-68
2023/07/25 12:57:59;;;;;;;5.40;1.50;;;;;;;;;;5069327;28;20056;-68
2023/07/25 13:00:24;;;;;;;1.33;0.80;;;;;;;;;;5070908;28;20024;-68
2023/07/25 13:02:49;;;;;;;2.40;1.30;;;;;;;;;;5069017;28;20368;-67
2023/07/25 13:05:14;;;;;;;3.10;0.90;;;;;;;;;;5070561;28;20016;-68
2023/07/25 13:07:39;;;;;;;3.55;1.65;;;;;;;;;;5069206;28;20487;-67
2023/07/25 13:10:06;;;;;;;1.10;1.00;;;;;;;;;;5067729;28;20021;-68
2023/07/25 13:12:31;;;;;;;2.63;1.38;;;;;;;;;;5067571;28;20064;-69
2023/07/25 13:14:56;;;;;;;1.05;0.88;;;;;;;;;;5070433;28;20055;-69
2023/07/25 13:17:22;;;;;;;3.75;1.67;;;;;;;;;;5068777;28;20040;-68
2023/07/25 13:19:47;;;;;;;3.07;1.07;;;;;;;;;;5070011;28;20071;-69
2023/07/25 13:22:12;;;;;;;1.17;0.90;;;;;;;;;;5068813;28;20037;-68
2023/07/25 13:24:37;;;;;;;3.88;1.13;;;;;;;;;;5069929;28;20103;-68
2023/07/25 13:27:03;;;;;;;10.17;0.97;;;;;;;;;;5068900;28;20040;-69
2023/07/25 13:29:28;;;;;;;2.38;0.90;;;;;;;;;;5070422;28;20017;-69
2023/07/25 13:31:54;;;;;;;2.80;0.90;;;;;;;;;;5067181;28;20048;-69
2023/07/25 13:34:19;;;;;;;1.20;0.98;;;;;;;;;;5070225;28;20065;-69
2023/07/25 13:36:44;;;;;;;4.33;1.10;;;;;;;;;;5068841;28;20044;-68
2023/07/25 13:39:09;;;;;;;2.87;1.10;;;;;;;;;;5070236;28;20023;-69
2023/07/25 13:41:34;;;;;;;5.97;0.90;;;;;;;;;;5069432;28;20060;-69
2023/07/25 13:43:59;;;;;;;3.90;0.80;;;;;;;;;;5070626;28;20371;-69
2023/07/25 13:46:24;;;;;;;2.07;1.00;;;;;;;;;;5071232;28;20040;-69
2023/07/25 13:48:50;;;;;;;5.77;1.10;;;;;;;;;;5074781;28;20031;-69
2023/07/25 13:51:16;;;;;;;3.83;1.30;;;;;;;;;;5073269;28;20094;-68
2023/07/25 13:53:41;;;;;;;1.80;1.00;;;;;;;;;;5074457;28;20368;-69
2023/07/25 13:56:06;;;;;;;1.05;0.70;;;;;;;;;;5072955;28;20435;-70
2023/07/25 13:58:31;;;;;;;1.87;1.07;;;;;;;;;;5074549;28;20099;-69
2023/07/25 14:00:56;;;;;;;2.88;1.23;;;;;;;;;;5072851;28;20499;-68
2023/07/25 14:03:22;;;;;;;2.43;0.93;;;;;;;;;;5074484;28;20073;-68
2023/07/25 14:05:47;;;;;;;3.40;1.83;;;;;;;;;;5074406;28;20415;-68
2023/07/25 14:08:12;;;;;;;1.53;0.87;;;;;;;;;;5072301;28;20458;-67
2023/07/25 14:10:39;;;;;;;4.60;1.17;;;;;;;;;;5074392;28;20948;-68
2023/07/25 14:13:04;;;;;;;8.60;1.95;;;;;;;;;;5072437;28;20090;-69
2023/07/25 14:15:32;;;;;;;1.53;1.30;;;;;;;;;;5074112;28;20020;-67
2023/07/25 14:17:59;;;;;;;2.88;0.95;;;;;;;;;;5072742;28;20044;-67
2023/07/25 14:20:24;;;;;;;5.22;1.17;;;;;;;;;;5072747;28;20036;-67
2023/07/25 14:22:49;;;;;;;2.03;1.20;;;;;;;;;;5072362;28;20482;-67
2023/07/25 14:25:15;;;;;;;1.58;1.45;;;;;;;;;;5074231;28;20017;-67
2023/07/25 14:27:40;;;;;;;7.90;1.58;;;;;;;;;;5071803;28;20028;-67